M I D A S
Marine Information and Data Acquisition System
Tripno 1573 of the Zeeleeuw from 2008-09-24 08:31:13 to 2008-09-24 13:55:11
Back to CruiseResearch ActivitiesStationsMapUnderway DataData graphs

EquipmentUnitsComment
TimeDGPSUTC
LatitudeDGPSDM.mWGS84
LongitudeDGPSDM.mWGS84
HeadingGyrodeg 
SOGDGPSknotsSpeed over ground
COGDGPSdegCourse over ground
DepthEcho soundermeters200 kHz
Missing or incorrect values are displayed as -999
Navigation data collected by the RV Zeeleeuw from 2008-09-24 08:31:13 to 2008-09-24 13:55:11
                                                                                    Next 1000 lines
Time Latitude Longitude Heading SOG COG Depth
2008-09-24 08:31:30 51°13.623 2°56.046 122.7 0.1 222 -999
2008-09-24 08:31:40 51°13.623 2°56.047 122.7 0.1 222 -999
2008-09-24 08:31:50 51°13.623 2°56.047 122.7 0.1 222 -999
2008-09-24 08:32:00 51°13.623 2°56.047 123.9   222 -999
2008-09-24 08:32:10 51°13.624 2°56.047 123.9   222 -999
2008-09-24 08:32:20 51°13.624 2°56.047 123.9   222 -999
2008-09-24 08:32:30 51°13.624 2°56.047 123.9   222 -999
2008-09-24 08:32:40 51°13.624 2°56.047 123.9   222 -999
2008-09-24 08:32:50 51°13.624 2°56.047 123.9   222 -999
2008-09-24 08:33:00 51°13.624 2°56.047 123.7   118 -999
2008-09-24 08:33:10 51°13.624 2°56.047 123.7   118 -999
2008-09-24 08:33:20 51°13.624 2°56.047 123.7   118 -999
2008-09-24 08:33:30 51°13.624 2°56.048 123.7   118 -999
2008-09-24 08:33:40 51°13.624 2°56.048 123.7   118 -999
2008-09-24 08:33:50 51°13.624 2°56.048 123.7   118 -999
2008-09-24 08:34:00 51°13.624 2°56.048 115.7 0.1 186 -999
2008-09-24 08:34:10 51°13.623 2°56.047 115.7 0.1 186 -999
2008-09-24 08:34:20 51°13.623 2°56.047 115.7 0.1 186 -999
2008-09-24 08:34:30 51°13.624 2°56.046 115.7 0.1 186 -999
2008-09-24 08:34:40 51°13.624 2°56.042 115.7 0.1 186 -999
2008-09-24 08:34:50 51°13.625 2°56.038 115.7 0.1 186 -999
2008-09-24 08:35:00 51°13.627 2°56.031 110 1.8 293 -999
2008-09-24 08:35:10 51°13.63 2°56.022 110 1.8 293 -999
2008-09-24 08:35:20 51°13.632 2°56.012 110 1.8 293 -999
2008-09-24 08:35:30 51°13.635 2°56 110 1.8 293 -999
2008-09-24 08:35:40 51°13.639 2°55.987 110 1.8 293 -999
2008-09-24 08:35:50 51°13.642 2°55.973 110 1.8 293 -999
2008-09-24 08:36:00 51°13.645 2°55.957 109.7 3.7 290 -999
2008-09-24 08:36:10 51°13.649 2°55.942 109.7 3.7 290 -999
2008-09-24 08:36:20 51°13.653 2°55.926 109.7 3.7 290 -999
2008-09-24 08:36:30 51°13.658 2°55.91 109.7 3.7 290 -999
2008-09-24 08:36:40 51°13.662 2°55.894 109.7 3.7 290 -999
2008-09-24 08:36:50 51°13.667 2°55.878 109.7 3.7 290 -999
2008-09-24 08:37:00 51°13.673 2°55.861 118.2 4.2 298 -999
2008-09-24 08:37:10 51°13.679 2°55.845 118.2 4.2 298 -999
2008-09-24 08:37:20 51°13.685 2°55.829 118.2 4.2 298 -999
2008-09-24 08:37:30 51°13.691 2°55.813 118.2 4.2 298 -999
2008-09-24 08:37:40 51°13.698 2°55.796 118.2 4.2 298 -999
2008-09-24 08:37:50 51°13.705 2°55.78 118.2 4.2 298 -999
2008-09-24 08:38:00 51°13.713 2°55.764 130.5 4.5 309 -999
2008-09-24 08:38:10 51°13.721 2°55.75 130.5 4.5 309 -999
2008-09-24 08:38:20 51°13.73 2°55.736 130.5 4.5 309 -999
2008-09-24 08:38:30 51°13.74 2°55.723 130.5 4.5 309 -999
2008-09-24 08:38:40 51°13.749 2°55.71 130.5 4.5 309 -999
2008-09-24 08:38:50 51°13.759 2°55.699 130.5 4.5 309 -999
2008-09-24 08:39:00 51°13.769 2°55.688 147.5 4.4 327 -999
2008-09-24 08:39:10 51°13.78 2°55.678 147.5 4.4 327 -999
2008-09-24 08:39:20 51°13.79 2°55.669 147.5 4.4 327 -999
2008-09-24 08:39:30 51°13.801 2°55.661 147.5 4.4 327 -999
2008-09-24 08:39:40 51°13.812 2°55.652 147.5 4.4 327 -999
2008-09-24 08:39:50 51°13.824 2°55.644 147.5 4.4 327 -999
2008-09-24 08:40:00 51°13.835 2°55.637 158.3 4.29 338 -999
2008-09-24 08:40:10 51°13.846 2°55.63 158.3 4.29 338 -999
2008-09-24 08:40:20 51°13.857 2°55.625 158.3 4.29 338 -999
2008-09-24 08:40:30 51°13.869 2°55.62 158.3 4.29 338 -999
2008-09-24 08:40:40 51°13.88 2°55.617 158.3 4.29 338 -999
2008-09-24 08:40:50 51°13.891 2°55.616 158.3 4.29 338 -999
2008-09-24 08:41:00 51°13.903 2°55.617 188.5 4 3 -999
2008-09-24 08:41:10 51°13.913 2°55.62 188.5 4 3 -999
2008-09-24 08:41:20 51°13.924 2°55.625 188.5 4 3 -999
2008-09-24 08:41:30 51°13.933 2°55.631 188.5 4 3 -999
2008-09-24 08:41:40 51°13.94 2°55.637 188.5 4 3 -999
2008-09-24 08:41:50 51°13.946 2°55.643 188.5 4 3 -999
2008-09-24 08:42:00 51°13.95 2°55.647 224 1.5 35 -999
2008-09-24 08:42:10 51°13.952 2°55.649 224 1.5 35 -999
2008-09-24 08:42:20 51°13.953 2°55.647 224 1.5 35 -999
2008-09-24 08:42:30 51°13.953 2°55.642 224 1.5 35 -999
2008-09-24 08:42:40 51°13.954 2°55.634 224 1.5 35 -999
2008-09-24 08:42:50 51°13.956 2°55.625 224 1.5 35 -999
2008-09-24 08:43:00 51°13.96 2°55.614 289.5 2.79 301 -999
2008-09-24 08:43:10 51°13.966 2°55.603 289.5 2.79 301 -999
2008-09-24 08:43:20 51°13.973 2°55.592 289.5 2.79 301 -999
2008-09-24 08:43:30 51°13.982 2°55.58 289.5 2.79 301 -999
2008-09-24 08:43:40 51°13.992 2°55.567 289.5 2.79 301 -999
2008-09-24 08:43:50 51°14.003 2°55.554 289.5 2.79 301 -999
2008-09-24 08:44:00 51°14.015 2°55.54 323.1 5.5 325 -999
2008-09-24 08:44:10 51°14.028 2°55.525 323.1 5.5 325 -999
2008-09-24 08:44:20 51°14.042 2°55.511 323.1 5.5 325 -999
2008-09-24 08:44:30 51°14.056 2°55.495 323.1 5.5 325 -999
2008-09-24 08:44:40 51°14.071 2°55.48 323.1 5.5 325 -999
2008-09-24 08:44:50 51°14.085 2°55.465 323.1 5.5 325 -999
2008-09-24 08:45:00 51°14.1 2°55.449 326.8 6.5 327 -999
2008-09-24 08:45:10 51°14.116 2°55.434 326.8 6.5 327 -999
2008-09-24 08:45:20 51°14.131 2°55.417 326.8 6.5 327 -999
2008-09-24 08:45:30 51°14.146 2°55.4 326.8 6.5 327 -999
2008-09-24 08:45:40 51°14.161 2°55.383 326.8 6.5 327 -999
2008-09-24 08:45:50 51°14.176 2°55.365 326.8 6.5 327 -999
2008-09-24 08:46:00 51°14.191 2°55.347 323 6.79 323 -999
2008-09-24 08:46:10 51°14.207 2°55.327 323 6.79 323 -999
2008-09-24 08:46:20 51°14.222 2°55.305 323 6.79 323 -999
2008-09-24 08:46:30 51°14.237 2°55.28 323 6.79 323 -999
2008-09-24 08:46:40 51°14.252 2°55.254 323 6.79 323 -999
2008-09-24 08:46:50 51°14.267 2°55.227 323 6.79 323 -999
2008-09-24 08:47:00 51°14.281 2°55.199 309.8 8.3 310 -999
2008-09-24 08:47:10 51°14.296 2°55.169 309.8 8.3 310 -999
2008-09-24 08:47:20 51°14.311 2°55.137 309.8 8.3 310 -999
2008-09-24 08:47:30 51°14.327 2°55.105 309.8 8.3 310 -999
2008-09-24 08:47:40 51°14.343 2°55.072 309.8 8.3 310 -999
2008-09-24 08:47:50 51°14.358 2°55.038 309.8 8.3 310 -999
2008-09-24 08:48:00 51°14.374 2°55.004 305.6 9.5 304 -999
2008-09-24 08:48:10 51°14.388 2°54.969 305.6 9.5 304 -999
2008-09-24 08:48:20 51°14.403 2°54.933 305.6 9.5 304 -999
2008-09-24 08:48:30 51°14.418 2°54.897 305.6 9.5 304 -999
2008-09-24 08:48:40 51°14.432 2°54.86 305.6 9.5 304 -999
2008-09-24 08:48:50 51°14.446 2°54.822 305.6 9.5 304 -999
2008-09-24 08:49:00 51°14.459 2°54.784 295.1 9.9 297 -999
2008-09-24 08:49:10 51°14.47 2°54.744 295.1 9.9 297 -999
2008-09-24 08:49:20 51°14.482 2°54.705 295.1 9.9 297 -999
2008-09-24 08:49:30 51°14.497 2°54.667 295.1 9.9 297 -999
2008-09-24 08:49:40 51°14.511 2°54.628 295.1 9.9 297 -999
2008-09-24 08:49:50 51°14.526 2°54.584 295.1 9.9 297 -999
2008-09-24 08:50:00 51°14.538 2°54.546 295.3 10.69 297 -999
2008-09-24 08:50:10 51°14.552 2°54.505 295.3 10.69 297 -999
2008-09-24 08:50:20 51°14.567 2°54.463 295.3 10.69 297 -999
2008-09-24 08:50:30 51°14.583 2°54.42 295.3 10.69 297 -999
2008-09-24 08:50:40 51°14.598 2°54.377 295.3 10.69 297 -999
2008-09-24 08:50:50 51°14.612 2°54.334 295.3 10.69 297 -999
2008-09-24 08:51:00 51°14.625 2°54.291 294.5 10.69 297 -999
2008-09-24 08:51:10 51°14.639 2°54.249 294.5 10.69 297 -999
2008-09-24 08:51:20 51°14.654 2°54.208 294.5 10.69 297 -999
2008-09-24 08:51:30 51°14.668 2°54.166 294.5 10.69 297 -999
2008-09-24 08:51:40 51°14.682 2°54.125 294.5 10.69 297 -999
2008-09-24 08:51:50 51°14.695 2°54.085 294.5 10.69 297 -999
2008-09-24 08:52:00 51°14.709 2°54.046 294.1 10.19 299 -999
2008-09-24 08:52:10 51°14.723 2°54.008 294.1 10.19 299 -999
2008-09-24 08:52:20 51°14.738 2°53.969 294.1 10.19 299 -999
2008-09-24 08:52:30 51°14.751 2°53.931 294.1 10.19 299 -999
2008-09-24 08:52:40 51°14.764 2°53.892 294.1 10.19 299 -999
2008-09-24 08:52:50 51°14.778 2°53.855 294.1 10.19 299 -999
2008-09-24 08:53:00 51°14.791 2°53.816 295.6 10 299 -999
2008-09-24 08:53:10 51°14.804 2°53.776 295.6 10 299 -999
2008-09-24 08:53:20 51°14.818 2°53.735 295.6 10 299 -999
2008-09-24 08:53:30 51°14.831 2°53.692 295.6 10 299 -999
2008-09-24 08:53:40 51°14.845 2°53.651 295.6 10 299 -999
2008-09-24 08:53:50 51°14.86 2°53.609 295.6 10 299 -999
2008-09-24 08:54:00 51°14.874 2°53.567 296.1 11 299 -999
2008-09-24 08:54:10 51°14.888 2°53.525 296.1 11 299 -999
2008-09-24 08:54:20 51°14.903 2°53.483 296.1 11 299 -999
2008-09-24 08:54:30 51°14.918 2°53.44 296.1 11 299 -999
2008-09-24 08:54:40 51°14.931 2°53.397 296.1 11 299 -999
2008-09-24 08:54:50 51°14.942 2°53.354 296.1 11 299 -999
2008-09-24 08:55:00 51°14.951 2°53.309 286.6 10.59 288 -999
2008-09-24 08:55:10 51°14.957 2°53.262 286.6 10.59 288 -999
2008-09-24 08:55:20 51°14.962 2°53.216 286.6 10.59 288 -999
2008-09-24 08:55:30 51°14.964 2°53.169 286.6 10.59 288 -999
2008-09-24 08:55:40 51°14.966 2°53.122 286.6 10.59 288 -999
2008-09-24 08:55:50 51°14.966 2°53.075 286.6 10.59 288 -999
2008-09-24 08:56:00 51°14.967 2°53.027 267.6 10.69 272 -999
2008-09-24 08:56:10 51°14.965 2°52.98 267.6 10.69 272 -999
2008-09-24 08:56:20 51°14.964 2°52.933 267.6 10.69 272 -999
2008-09-24 08:56:30 51°14.964 2°52.885 267.6 10.69 272 -999
2008-09-24 08:56:40 51°14.962 2°52.837 267.6 10.69 272 -999
2008-09-24 08:56:50 51°14.961 2°52.79 267.6 10.69 272 -999
2008-09-24 08:57:00 51°14.96 2°52.742 266.3 10.8 268 -999
2008-09-24 08:57:10 51°14.958 2°52.695 266.3 10.8 268 -999
2008-09-24 08:57:20 51°14.958 2°52.646 266.3 10.8 268 -999
2008-09-24 08:57:30 51°14.958 2°52.598 266.3 10.8 268 -999
2008-09-24 08:57:40 51°14.957 2°52.55 266.3 10.8 268 -999
2008-09-24 08:57:50 51°14.956 2°52.502 266.3 10.8 268 -999
2008-09-24 08:58:00 51°14.956 2°52.455 266.3 10.9 271 -999
2008-09-24 08:58:10 51°14.954 2°52.407 266.3 10.9 271 -999
2008-09-24 08:58:20 51°14.954 2°52.359 266.3 10.9 271 -999
2008-09-24 08:58:30 51°14.953 2°52.312 266.3 10.9 271 -999
2008-09-24 08:58:40 51°14.953 2°52.264 266.3 10.9 271 -999
2008-09-24 08:58:50 51°14.954 2°52.216 266.3 10.9 271 -999
2008-09-24 08:59:00 51°14.954 2°52.168 269 10.9 272 -999
2008-09-24 08:59:10 51°14.954 2°52.121 269 10.9 272 -999
2008-09-24 08:59:20 51°14.954 2°52.077 269 10.9 272 -999
2008-09-24 08:59:30 51°14.953 2°52.024 269 10.9 272 -999
2008-09-24 08:59:40 51°14.953 2°51.977 269 10.9 272 -999
2008-09-24 08:59:50 51°14.952 2°51.929 269 10.9 272 -999
2008-09-24 09:00:00 51°14.952 2°51.882 267.3 10.8 273 -999
2008-09-24 09:00:10 51°14.952 2°51.834 267.3 10.8 273 -999
2008-09-24 09:00:20 51°14.954 2°51.786 267.3 10.8 273 -999
2008-09-24 09:00:30 51°14.957 2°51.739 267.3 10.8 273 -999
2008-09-24 09:00:40 51°14.96 2°51.691 267.3 10.8 273 -999
2008-09-24 09:00:50 51°14.964 2°51.643 267.3 10.8 273 -999
2008-09-24 09:01:00 51°14.969 2°51.596 276.1 10.9 279 -999
2008-09-24 09:01:10 51°14.975 2°51.548 276.1 10.9 279 -999
2008-09-24 09:01:20 51°14.981 2°51.501 276.1 10.9 279 -999
2008-09-24 09:01:30 51°14.989 2°51.455 276.1 10.9 279 -999
2008-09-24 09:01:40 51°14.997 2°51.408 276.1 10.9 279 -999
2008-09-24 09:01:50 51°15.006 2°51.362 276.1 10.9 279 -999
2008-09-24 09:02:00 51°15.014 2°51.315 284.8 10.9 286 -999
2008-09-24 09:02:10 51°15.022 2°51.269 284.8 10.9 286 -999
2008-09-24 09:02:20 51°15.031 2°51.222 284.8 10.9 286 -999
2008-09-24 09:02:30 51°15.04 2°51.176 284.8 10.9 286 -999
2008-09-24 09:02:40 51°15.049 2°51.129 284.8 10.9 286 -999
2008-09-24 09:02:50 51°15.058 2°51.083 284.8 10.9 286 -999
2008-09-24 09:03:00 51°15.068 2°51.036 286.8 11.09 289 -999
2008-09-24 09:03:10 51°15.077 2°50.99 286.8 11.09 289 -999
2008-09-24 09:03:20 51°15.087 2°50.939 286.8 11.09 289 -999
2008-09-24 09:03:30 51°15.095 2°50.897 286.8 11.09 289 -999
2008-09-24 09:03:40 51°15.104 2°50.85 286.8 11.09 289 -999
2008-09-24 09:03:50 51°15.113 2°50.803 286.8 11.09 289 -999
2008-09-24 09:04:00 51°15.123 2°50.756 285.1 11.09 286 -999
2008-09-24 09:04:10 51°15.132 2°50.709 285.1 11.09 286 -999
2008-09-24 09:04:20 51°15.141 2°50.663 285.1 11.09 286 -999
2008-09-24 09:04:30 51°15.15 2°50.615 285.1 11.09 286 -999
2008-09-24 09:04:40 51°15.158 2°50.568 285.1 11.09 286 -999
2008-09-24 09:04:50 51°15.166 2°50.521 285.1 11.09 286 -999
2008-09-24 09:05:00 51°15.174 2°50.474 283.6 11 286 -999
2008-09-24 09:05:10 51°15.183 2°50.426 283.6 11 286 -999
2008-09-24 09:05:20 51°15.192 2°50.379 283.6 11 286 -999
2008-09-24 09:05:30 51°15.199 2°50.332 283.6 11 286 -999
2008-09-24 09:05:40 51°15.208 2°50.285 283.6 11 286 -999
2008-09-24 09:05:50 51°15.217 2°50.237 283.6 11 286 -999
2008-09-24 09:06:00 51°15.225 2°50.19 284.3 11.09 285 -999
2008-09-24 09:06:10 51°15.233 2°50.143 284.3 11.09 285 -999
2008-09-24 09:06:20 51°15.242 2°50.096 284.3 11.09 285 -999
2008-09-24 09:06:30 51°15.252 2°50.049 284.3 11.09 285 -999
2008-09-24 09:06:40 51°15.26 2°50.002 284.3 11.09 285 -999
2008-09-24 09:06:50 51°15.269 2°49.955 284.3 11.09 285 -999
2008-09-24 09:07:00 51°15.278 2°49.908 283.8 11.19 289 -999
2008-09-24 09:07:10 51°15.287 2°49.862 283.8 11.19 289 -999
2008-09-24 09:07:20 51°15.296 2°49.814 283.8 11.19 289 -999
2008-09-24 09:07:30 51°15.304 2°49.767 283.8 11.19 289 -999
2008-09-24 09:07:40 51°15.312 2°49.721 283.8 11.19 289 -999
2008-09-24 09:07:50 51°15.32 2°49.674 283.8 11.19 289 -999
2008-09-24 09:08:00 51°15.329 2°49.627 284.3 10.9 287 -999
2008-09-24 09:08:10 51°15.338 2°49.581 284.3 10.9 287 -999
2008-09-24 09:08:20 51°15.347 2°49.535 284.3 10.9 287 -999
2008-09-24 09:08:30 51°15.355 2°49.488 284.3 10.9 287 -999
2008-09-24 09:08:40 51°15.363 2°49.442 284.3 10.9 287 -999
2008-09-24 09:08:50 51°15.371 2°49.395 284.3 10.9 287 -999
2008-09-24 09:09:00 51°15.38 2°49.349 284.6 10.9 284 -999
2008-09-24 09:09:10 51°15.389 2°49.303 284.6 10.9 284 -999
2008-09-24 09:09:20 51°15.396 2°49.261 284.6 10.9 284 -999
2008-09-24 09:09:30 51°15.406 2°49.211 284.6 10.9 284 -999
2008-09-24 09:09:40 51°15.414 2°49.165 284.6 10.9 284 -999
2008-09-24 09:09:50 51°15.423 2°49.119 284.6 10.9 284 -999
2008-09-24 09:10:00 51°15.431 2°49.073 283.1 10.9 288 -999
2008-09-24 09:10:10 51°15.439 2°49.027 283.1 10.9 288 -999
2008-09-24 09:10:20 51°15.448 2°48.981 283.1 10.9 288 -999
2008-09-24 09:10:30 51°15.456 2°48.934 283.1 10.9 288 -999
2008-09-24 09:10:40 51°15.465 2°48.888 283.1 10.9 288 -999
2008-09-24 09:10:50 51°15.473 2°48.841 283.1 10.9 288 -999
2008-09-24 09:11:00 51°15.482 2°48.794 284.1 10.9 287 -999
2008-09-24 09:11:10 51°15.49 2°48.747 284.1 10.9 287 -999
2008-09-24 09:11:20 51°15.498 2°48.701 284.1 10.9 287 -999
2008-09-24 09:11:30 51°15.507 2°48.655 284.1 10.9 287 -999
2008-09-24 09:11:40 51°15.515 2°48.608 284.1 10.9 287 -999
2008-09-24 09:11:50 51°15.523 2°48.562 284.1 10.9 287 -999
2008-09-24 09:12:00 51°15.531 2°48.516 283.1 10.9 286 -999
2008-09-24 09:12:10 51°15.538 2°48.469 283.1 10.9 286 -999
2008-09-24 09:12:20 51°15.546 2°48.423 283.1 10.9 286 -999
2008-09-24 09:12:30 51°15.555 2°48.376 283.1 10.9 286 -999
2008-09-24 09:12:40 51°15.563 2°48.329 283.1 10.9 286 -999
2008-09-24 09:12:50 51°15.571 2°48.283 283.1 10.9 286 -999
2008-09-24 09:13:00 51°15.578 2°48.241 283.5 11 287 -999
2008-09-24 09:13:10 51°15.586 2°48.195 283.5 11 287 -999
2008-09-24 09:13:20 51°15.595 2°48.144 283.5 11 287 -999
2008-09-24 09:13:30 51°15.604 2°48.097 283.5 11 287 -999
2008-09-24 09:13:40 51°15.613 2°48.046 283.5 11 287 -999
2008-09-24 09:13:50 51°15.62 2°48.004 283.5 11 287 -999
2008-09-24 09:14:00 51°15.628 2°47.962 282.8 10.9 287 -999
2008-09-24 09:14:10 51°15.637 2°47.91 282.8 10.9 287 -999
2008-09-24 09:14:20 51°15.645 2°47.864 282.8 10.9 287 -999
2008-09-24 09:14:30 51°15.654 2°47.817 282.8 10.9 287 -999
2008-09-24 09:14:40 51°15.662 2°47.771 282.8 10.9 287 -999
2008-09-24 09:14:50 51°15.671 2°47.724 282.8 10.9 287 -999
2008-09-24 09:15:00 51°15.679 2°47.683 285.8 10.9 286 -999
2008-09-24 09:15:10 51°15.688 2°47.631 285.8 10.9 286 -999
2008-09-24 09:15:20 51°15.697 2°47.585 285.8 10.9 286 -999
2008-09-24 09:15:30 51°15.704 2°47.538 285.8 10.9 286 -999
2008-09-24 09:15:40 51°15.712 2°47.492 285.8 10.9 286 -999
2008-09-24 09:15:50 51°15.72 2°47.446 285.8 10.9 286 -999
2008-09-24 09:16:00 51°15.729 2°47.399 284.3 10.9 288 -999
2008-09-24 09:16:10 51°15.737 2°47.353 284.3 10.9 288 -999
2008-09-24 09:16:20 51°15.747 2°47.307 284.3 10.9 288 -999
2008-09-24 09:16:30 51°15.757 2°47.262 284.3 10.9 288 -999
2008-09-24 09:16:40 51°15.768 2°47.217 284.3 10.9 288 -999
2008-09-24 09:16:50 51°15.779 2°47.171 284.3 10.9 288 -999
2008-09-24 09:17:00 51°15.789 2°47.126 288.8 10.9 290 -999
2008-09-24 09:17:10 51°15.8 2°47.081 288.8 10.9 290 -999
2008-09-24 09:17:20 51°15.811 2°47.036 288.8 10.9 290 -999
2008-09-24 09:17:30 51°15.822 2°46.991 288.8 10.9 290 -999
2008-09-24 09:17:40 51°15.831 2°46.95 288.8 10.9 290 -999
2008-09-24 09:17:50 51°15.844 2°46.901 288.8 10.9 290 -999
2008-09-24 09:18:00 51°15.854 2°46.855 290.1 11 289 -999
2008-09-24 09:18:10 51°15.865 2°46.811 290.1 11 289 -999
2008-09-24 09:18:20 51°15.876 2°46.766 290.1 11 289 -999
2008-09-24 09:18:30 51°15.886 2°46.721 290.1 11 289 -999
2008-09-24 09:18:40 51°15.897 2°46.677 290.1 11 289 -999
2008-09-24 09:18:50 51°15.907 2°46.637 290.1 11 289 -999
2008-09-24 09:19:00 51°15.919 2°46.593 290.6 10.69 295 -999
2008-09-24 09:19:10 51°15.931 2°46.549 290.6 10.69 295 -999
2008-09-24 09:19:20 51°15.945 2°46.501 290.6 10.69 295 -999
2008-09-24 09:19:30 51°15.956 2°46.462 290.6 10.69 295 -999
2008-09-24 09:19:40 51°15.969 2°46.419 290.6 10.69 295 -999
2008-09-24 09:19:50 51°15.981 2°46.375 290.6 10.69 295 -999
2008-09-24 09:20:00 51°15.996 2°46.328 292.6 11 297 -999
2008-09-24 09:20:10 51°16.009 2°46.285 292.6 11 297 -999
2008-09-24 09:20:20 51°16.022 2°46.242 292.6 11 297 -999
2008-09-24 09:20:30 51°16.034 2°46.197 292.6 11 297 -999
2008-09-24 09:20:40 51°16.046 2°46.153 292.6 11 297 -999
2008-09-24 09:20:50 51°16.059 2°46.11 292.6 11 297 -999
2008-09-24 09:21:00 51°16.07 2°46.07 293.5 10.9 292 -999
2008-09-24 09:21:10 51°16.083 2°46.022 293.5 10.9 292 -999
2008-09-24 09:21:20 51°16.097 2°45.979 293.5 10.9 292 -999
2008-09-24 09:21:30 51°16.111 2°45.937 293.5 10.9 292 -999
2008-09-24 09:21:40 51°16.125 2°45.895 293.5 10.9 292 -999
2008-09-24 09:21:50 51°16.14 2°45.853 293.5 10.9 292 -999
2008-09-24 09:22:00 51°16.155 2°45.811 296.6 10.9 300 -999
2008-09-24 09:22:10 51°16.171 2°45.771 296.6 10.9 300 -999
2008-09-24 09:22:20 51°16.187 2°45.73 296.6 10.9 300 -999
2008-09-24 09:22:30 51°16.203 2°45.688 296.6 10.9 300 -999
2008-09-24 09:22:40 51°16.217 2°45.65 296.6 10.9 300 -999
2008-09-24 09:22:50 51°16.236 2°45.604 296.6 10.9 300 -999
2008-09-24 09:23:00 51°16.252 2°45.561 299.3 11.3 302 -999
2008-09-24 09:23:10 51°16.269 2°45.52 299.3 11.3 302 -999
2008-09-24 09:23:20 51°16.284 2°45.479 299.3 11.3 302 -999
2008-09-24 09:23:30 51°16.3 2°45.438 299.3 11.3 302 -999
2008-09-24 09:23:40 51°16.317 2°45.398 299.3 11.3 302 -999
2008-09-24 09:23:50 51°16.335 2°45.358 299.3 11.3 302 -999
2008-09-24 09:24:00 51°16.352 2°45.318 302.3 11 306 -999
2008-09-24 09:24:10 51°16.37 2°45.279 302.3 11 306 -999
2008-09-24 09:24:20 51°16.387 2°45.239 302.3 11 306 -999
2008-09-24 09:24:30 51°16.405 2°45.199 302.3 11 306 -999
2008-09-24 09:24:40 51°16.423 2°45.16 302.3 11 306 -999
2008-09-24 09:24:50 51°16.44 2°45.12 302.3 11 306 -999
2008-09-24 09:25:00 51°16.458 2°45.081 303.3 11 306 -999
2008-09-24 09:25:10 51°16.475 2°45.04 303.3 11 306 -999
2008-09-24 09:25:20 51°16.491 2°45.003 303.3 11 306 -999
2008-09-24 09:25:30 51°16.511 2°44.958 303.3 11 306 -999
2008-09-24 09:25:40 51°16.529 2°44.919 303.3 11 306 -999
2008-09-24 09:25:50 51°16.545 2°44.882 303.3 11 306 -999
2008-09-24 09:26:00 51°16.564 2°44.837 303.1 11.09 304 -999
2008-09-24 09:26:10 51°16.58 2°44.8 303.1 11.09 304 -999
2008-09-24 09:26:20 51°16.597 2°44.76 303.1 11.09 304 -999
2008-09-24 09:26:30 51°16.615 2°44.715 303.1 11.09 304 -999
2008-09-24 09:26:40 51°16.631 2°44.679 303.1 11.09 304 -999
2008-09-24 09:26:50 51°16.649 2°44.639 303.1 11.09 304 -999
2008-09-24 09:27:00 51°16.666 2°44.599 302.6 11 305 -999
2008-09-24 09:27:10 51°16.682 2°44.558 302.6 11 305 -999
2008-09-24 09:27:20 51°16.7 2°44.518 302.6 11 305 -999
2008-09-24 09:27:30 51°16.717 2°44.478 302.6 11 305 -999
2008-09-24 09:27:40 51°16.735 2°44.438 302.6 11 305 -999
2008-09-24 09:27:50 51°16.753 2°44.397 302.6 11 305 -999
2008-09-24 09:28:00 51°16.77 2°44.355 301.3 11.19 305 -999
2008-09-24 09:28:10 51°16.788 2°44.314 301.3 11.19 305 -999
2008-09-24 09:28:20 51°16.805 2°44.272 301.3 11.19 305 -999
2008-09-24 09:28:30 51°16.823 2°44.231 301.3 11.19 305 -999
2008-09-24 09:28:40 51°16.841 2°44.189 301.3 11.19 305 -999
2008-09-24 09:28:50 51°16.857 2°44.147 301.3 11.19 305 -999
2008-09-24 09:29:00 51°16.875 2°44.105 301.6 11.3 303 -999
2008-09-24 09:29:10 51°16.893 2°44.064 301.6 11.3 303 -999
2008-09-24 09:29:20 51°16.91 2°44.024 301.6 11.3 303 -999
2008-09-24 09:29:30 51°16.927 2°43.982 301.6 11.3 303 -999
2008-09-24 09:29:40 51°16.945 2°43.94 301.6 11.3 303 -999
2008-09-24 09:29:50 51°16.962 2°43.899 301.6 11.3 303 -999
2008-09-24 09:30:00 51°16.979 2°43.857 302.6 11.3 303 -999
2008-09-24 09:30:10 51°16.997 2°43.817 302.6 11.3 303 -999
2008-09-24 09:30:20 51°17.014 2°43.775 302.6 11.3 303 -999
2008-09-24 09:30:30 51°17.031 2°43.734 302.6 11.3 303 -999
2008-09-24 09:30:40 51°17.049 2°43.693 302.6 11.3 303 -999
2008-09-24 09:30:50 51°17.068 2°43.652 302.6 11.3 303 -999
2008-09-24 09:31:00 51°17.086 2°43.611 302.6 11.4 305 -999
2008-09-24 09:31:10 51°17.103 2°43.569 302.6 11.4 305 -999
2008-09-24 09:31:20 51°17.121 2°43.528 302.6 11.4 305 -999
2008-09-24 09:31:30 51°17.138 2°43.486 302.6 11.4 305 -999
2008-09-24 09:31:40 51°17.156 2°43.445 302.6 11.4 305 -999
2008-09-24 09:31:50 51°17.173 2°43.403 302.6 11.4 305 -999
2008-09-24 09:32:00 51°17.189 2°43.362 301.8 11.19 302 -999
2008-09-24 09:32:10 51°17.207 2°43.323 301.8 11.19 302 -999
2008-09-24 09:32:20 51°17.224 2°43.282 301.8 11.19 302 -999
2008-09-24 09:32:30 51°17.241 2°43.241 301.8 11.19 302 -999
2008-09-24 09:32:40 51°17.257 2°43.2 301.8 11.19 302 -999
2008-09-24 09:32:50 51°17.274 2°43.159 301.8 11.19 302 -999
2008-09-24 09:33:00 51°17.291 2°43.119 301.6 11.09 305 -999
2008-09-24 09:33:10 51°17.308 2°43.078 301.6 11.09 305 -999
2008-09-24 09:33:20 51°17.325 2°43.038 301.6 11.09 305 -999
2008-09-24 09:33:30 51°17.342 2°42.999 301.6 11.09 305 -999
2008-09-24 09:33:40 51°17.359 2°42.959 301.6 11.09 305 -999
2008-09-24 09:33:50 51°17.376 2°42.918 301.6 11.09 305 -999
2008-09-24 09:34:00 51°17.394 2°42.879 301.6 10.9 307 -999
2008-09-24 09:34:10 51°17.41 2°42.838 301.6 10.9 307 -999
2008-09-24 09:34:20 51°17.427 2°42.798 301.6 10.9 307 -999
2008-09-24 09:34:30 51°17.444 2°42.757 301.6 10.9 307 -999
2008-09-24 09:34:40 51°17.462 2°42.717 301.6 10.9 307 -999
2008-09-24 09:34:50 51°17.48 2°42.677 301.6 10.9 307 -999
2008-09-24 09:35:00 51°17.498 2°42.636 302.6 11 305 -999
2008-09-24 09:35:10 51°17.515 2°42.596 302.6 11 305 -999
2008-09-24 09:35:20 51°17.532 2°42.556 302.6 11 305 -999
2008-09-24 09:35:30 51°17.55 2°42.516 302.6 11 305 -999
2008-09-24 09:35:40 51°17.567 2°42.474 302.6 11 305 -999
2008-09-24 09:35:50 51°17.585 2°42.434 302.6 11 305 -999
2008-09-24 09:36:00 51°17.603 2°42.393 301.1 11.19 305 -999
2008-09-24 09:36:10 51°17.62 2°42.352 301.1 11.19 305 -999
2008-09-24 09:36:20 51°17.639 2°42.312 301.1 11.19 305 -999
2008-09-24 09:36:30 51°17.657 2°42.271 301.1 11.19 305 -999
2008-09-24 09:36:40 51°17.674 2°42.229 301.1 11.19 305 -999
2008-09-24 09:36:50 51°17.692 2°42.188 301.1 11.19 305 -999
2008-09-24 09:37:00 51°17.71 2°42.148 302.6 11.3 304 -999
2008-09-24 09:37:10 51°17.728 2°42.107 302.6 11.3 304 -999
2008-09-24 09:37:20 51°17.746 2°42.067 302.6 11.3 304 -999
2008-09-24 09:37:30 51°17.763 2°42.026 302.6 11.3 304 -999
2008-09-24 09:37:40 51°17.782 2°41.985 302.6 11.3 304 -999
2008-09-24 09:37:50 51°17.8 2°41.945 302.6 11.3 304 -999
2008-09-24 09:38:00 51°17.818 2°41.904 301.6 11.4 303 -999
2008-09-24 09:38:10 51°17.836 2°41.864 301.6 11.4 303 -999
2008-09-24 09:38:20 51°17.854 2°41.824 301.6 11.4 303 -999
2008-09-24 09:38:30 51°17.872 2°41.784 301.6 11.4 303 -999
2008-09-24 09:38:40 51°17.889 2°41.743 301.6 11.4 303 -999
2008-09-24 09:38:50 51°17.907 2°41.702 301.6 11.4 303 -999
2008-09-24 09:39:00 51°17.925 2°41.661 301.8 11.4 306 -999
2008-09-24 09:39:10 51°17.942 2°41.621 301.8 11.4 306 -999
2008-09-24 09:39:20 51°17.96 2°41.581 301.8 11.4 306 -999
2008-09-24 09:39:30 51°17.978 2°41.541 301.8 11.4 306 -999
2008-09-24 09:39:40 51°17.995 2°41.5 301.8 11.4 306 -999
2008-09-24 09:39:50 51°18.013 2°41.46 301.8 11.4 306 -999
2008-09-24 09:40:00 51°18.031 2°41.42 302.8 11.19 306 -999
2008-09-24 09:40:10 51°18.048 2°41.379 302.8 11.19 306 -999
2008-09-24 09:40:20 51°18.065 2°41.337 302.8 11.19 306 -999
2008-09-24 09:40:30 51°18.083 2°41.296 302.8 11.19 306 -999
2008-09-24 09:40:40 51°18.099 2°41.255 302.8 11.19 306 -999
2008-09-24 09:40:50 51°18.116 2°41.213 302.8 11.19 306 -999
2008-09-24 09:41:00 51°18.134 2°41.172 300.3 11.3 305 -999
2008-09-24 09:41:10 51°18.151 2°41.131 300.3 11.3 305 -999
2008-09-24 09:41:20 51°18.169 2°41.09 300.3 11.3 305 -999
2008-09-24 09:41:30 51°18.186 2°41.049 300.3 11.3 305 -999
2008-09-24 09:41:40 51°18.204 2°41.009 300.3 11.3 305 -999
2008-09-24 09:41:50 51°18.222 2°40.968 300.3 11.3 305 -999
2008-09-24 09:42:00 51°18.239 2°40.928 303.3 10.9 304 -999
2008-09-24 09:42:10 51°18.256 2°40.889 303.3 10.9 304 -999
2008-09-24 09:42:20 51°18.273 2°40.849 303.3 10.9 304 -999
2008-09-24 09:42:30 51°18.29 2°40.81 303.3 10.9 304 -999
2008-09-24 09:42:40 51°18.308 2°40.77 303.3 10.9 304 -999
2008-09-24 09:42:50 51°18.325 2°40.73 303.3 10.9 304 -999
2008-09-24 09:43:00 51°18.342 2°40.69 302.3 10.9 305 -999
2008-09-24 09:43:10 51°18.359 2°40.649 302.3 10.9 305 -999
2008-09-24 09:43:20 51°18.376 2°40.61 302.3 10.9 305 -999
2008-09-24 09:43:30 51°18.393 2°40.571 302.3 10.9 305 -999
2008-09-24 09:43:40 51°18.41 2°40.531 302.3 10.9 305 -999
2008-09-24 09:43:50 51°18.427 2°40.492 302.3 10.9 305 -999
2008-09-24 09:44:00 51°18.444 2°40.452 302.1 10.9 305 -999
2008-09-24 09:44:10 51°18.462 2°40.412 302.1 10.9 305 -999
2008-09-24 09:44:20 51°18.479 2°40.373 302.1 10.9 305 -999
2008-09-24 09:44:30 51°18.496 2°40.333 302.1 10.9 305 -999
2008-09-24 09:44:40 51°18.514 2°40.295 302.1 10.9 305 -999
2008-09-24 09:44:50 51°18.532 2°40.257 302.1 10.9 305 -999
2008-09-24 09:45:00 51°18.549 2°40.217 302.3 11 307 -999
2008-09-24 09:45:10 51°18.567 2°40.176 302.3 11 307 -999
2008-09-24 09:45:20 51°18.585 2°40.138 302.3 11 307 -999
2008-09-24 09:45:30 51°18.602 2°40.097 302.3 11 307 -999
2008-09-24 09:45:40 51°18.62 2°40.059 302.3 11 307 -999
2008-09-24 09:45:50 51°18.637 2°40.02 302.3 11 307 -999
2008-09-24 09:46:00 51°18.655 2°39.981 303.1 11.09 305 -999
2008-09-24 09:46:10 51°18.673 2°39.942 303.1 11.09 305 -999
2008-09-24 09:46:20 51°18.69 2°39.902 303.1 11.09 305 -999
2008-09-24 09:46:30 51°18.708 2°39.863 303.1 11.09 305 -999
2008-09-24 09:46:40 51°18.726 2°39.823 303.1 11.09 305 -999
2008-09-24 09:46:50 51°18.743 2°39.783 303.1 11.09 305 -999
2008-09-24 09:47:00 51°18.761 2°39.743 303.5 11.09 304 -999
2008-09-24 09:47:10 51°18.78 2°39.703 303.5 11.09 304 -999
2008-09-24 09:47:20 51°18.797 2°39.663 303.5 11.09 304 -999
2008-09-24 09:47:30 51°18.816 2°39.624 303.5 11.09 304 -999
2008-09-24 09:47:40 51°18.834 2°39.583 303.5 11.09 304 -999
2008-09-24 09:47:50 51°18.852 2°39.543 303.5 11.09 304 -999
2008-09-24 09:48:00 51°18.871 2°39.503 302.3 11.3 306 -999
2008-09-24 09:48:10 51°18.889 2°39.463 302.3 11.3 306 -999
2008-09-24 09:48:20 51°18.906 2°39.423 302.3 11.3 306 -999
2008-09-24 09:48:30 51°18.924 2°39.383 302.3 11.3 306 -999
2008-09-24 09:48:40 51°18.942 2°39.345 302.3 11.3 306 -999
2008-09-24 09:48:50 51°18.959 2°39.306 302.3 11.3 306 -999
2008-09-24 09:49:00 51°18.977 2°39.269 304.1 10.59 307 -999
2008-09-24 09:49:10 51°18.994 2°39.232 304.1 10.59 307 -999
2008-09-24 09:49:20 51°19.012 2°39.195 304.1 10.59 307 -999
2008-09-24 09:49:30 51°19.029 2°39.157 304.1 10.59 307 -999
2008-09-24 09:49:40 51°19.046 2°39.119 304.1 10.59 307 -999
2008-09-24 09:49:50 51°19.063 2°39.082 304.1 10.59 307 -999
2008-09-24 09:50:00 51°19.079 2°39.045 301.8 10 307 -999
2008-09-24 09:50:10 51°19.094 2°39.009 301.8 10 307 -999
2008-09-24 09:50:20 51°19.11 2°38.975 301.8 10 307 -999
2008-09-24 09:50:30 51°19.124 2°38.943 301.8 10 307 -999
2008-09-24 09:50:40 51°19.139 2°38.912 301.8 10 307 -999
2008-09-24 09:50:50 51°19.152 2°38.881 301.8 10 307 -999
2008-09-24 09:51:00 51°19.164 2°38.851 301.8 8.09 304 -999
2008-09-24 09:51:10 51°19.177 2°38.822 301.8 8.09 304 -999
2008-09-24 09:51:20 51°19.19 2°38.792 301.8 8.09 304 -999
2008-09-24 09:51:30 51°19.203 2°38.763 301.8 8.09 304 -999
2008-09-24 09:51:40 51°19.216 2°38.734 301.8 8.09 304 -999
2008-09-24 09:51:50 51°19.228 2°38.705 301.8 8.09 304 -999
2008-09-24 09:52:00 51°19.241 2°38.676 302.6 8.09 305 -999
2008-09-24 09:52:10 51°19.253 2°38.647 302.6 8.09 305 -999
2008-09-24 09:52:20 51°19.265 2°38.618 302.6 8.09 305 -999
2008-09-24 09:52:30 51°19.278 2°38.589 302.6 8.09 305 -999
2008-09-24 09:52:40 51°19.291 2°38.559 302.6 8.09 305 -999
2008-09-24 09:52:50 51°19.303 2°38.53 302.6 8.09 305 -999
2008-09-24 09:53:00 51°19.316 2°38.503 304.1 8 306 -999
2008-09-24 09:53:10 51°19.33 2°38.474 304.1 8 306 -999
2008-09-24 09:53:20 51°19.343 2°38.445 304.1 8 306 -999
2008-09-24 09:53:30 51°19.356 2°38.416 304.1 8 306 -999
2008-09-24 09:53:40 51°19.368 2°38.387 304.1 8 306 -999
2008-09-24 09:53:50 51°19.382 2°38.359 304.1 8 306 -999
2008-09-24 09:54:00 51°19.394 2°38.331 303.8 7.9 308 -999
2008-09-24 09:54:10 51°19.407 2°38.303 303.8 7.9 308 -999
2008-09-24 09:54:20 51°19.42 2°38.275 303.8 7.9 308 -999
2008-09-24 09:54:30 51°19.433 2°38.246 303.8 7.9 308 -999
2008-09-24 09:54:40 51°19.445 2°38.218 303.8 7.9 308 -999
2008-09-24 09:54:50 51°19.457 2°38.189 303.8 7.9 308 -999
2008-09-24 09:55:00 51°19.47 2°38.16 301.1 8 305 -999
2008-09-24 09:55:10 51°19.482 2°38.132 301.1 8 305 -999
2008-09-24 09:55:20 51°19.495 2°38.104 301.1 8 305 -999
2008-09-24 09:55:30 51°19.508 2°38.075 301.1 8 305 -999
2008-09-24 09:55:40 51°19.519 2°38.046 301.1 8 305 -999
2008-09-24 09:55:50 51°19.532 2°38.018 301.1 8 305 -999
2008-09-24 09:56:00 51°19.544 2°37.99 302.6 7.7 305 -999
2008-09-24 09:56:10 51°19.557 2°37.962 302.6 7.7 305 -999
2008-09-24 09:56:20 51°19.569 2°37.934 302.6 7.7 305 -999
2008-09-24 09:56:30 51°19.58 2°37.905 302.6 7.7 305 -999
2008-09-24 09:56:40 51°19.593 2°37.877 302.6 7.7 305 -999
2008-09-24 09:56:50 51°19.605 2°37.85 302.6 7.7 305 -999
2008-09-24 09:57:00 51°19.618 2°37.823 303.5 7.79 309 -999
2008-09-24 09:57:10 51°19.631 2°37.795 303.5 7.79 309 -999
2008-09-24 09:57:20 51°19.644 2°37.767 303.5 7.79 309 -999
2008-09-24 09:57:30 51°19.657 2°37.74 303.5 7.79 309 -999
2008-09-24 09:57:40 51°19.671 2°37.713 303.5 7.79 309 -999
2008-09-24 09:57:50 51°19.684 2°37.685 303.5 7.79 309 -999
2008-09-24 09:58:00 51°19.697 2°37.658 305.1 7.79 306 -999
2008-09-24 09:58:10 51°19.711 2°37.63 305.1 7.79 306 -999
2008-09-24 09:58:20 51°19.725 2°37.602 305.1 7.79 306 -999
2008-09-24 09:58:30 51°19.738 2°37.575 305.1 7.79 306 -999
2008-09-24 09:58:40 51°19.751 2°37.547 305.1 7.79 306 -999
2008-09-24 09:58:50 51°19.765 2°37.52 305.1 7.79 306 -999
2008-09-24 09:59:00 51°19.779 2°37.494 305.1 7.7 310 -999
2008-09-24 09:59:10 51°19.791 2°37.466 305.1 7.7 310 -999
2008-09-24 09:59:20 51°19.806 2°37.439 305.1 7.7 310 -999
2008-09-24 09:59:30 51°19.819 2°37.412 305.1 7.7 310 -999
2008-09-24 09:59:40 51°19.833 2°37.384 305.1 7.7 310 -999
2008-09-24 09:59:50 51°19.847 2°37.357 305.1 7.7 310 -999
2008-09-24 10:00:00 51°19.86 2°37.329 304.1 8 310 -999
2008-09-24 10:00:10 51°19.874 2°37.301 304.1 8 310 -999
2008-09-24 10:00:20 51°19.888 2°37.275 304.1 8 310 -999
2008-09-24 10:00:30 51°19.9 2°37.249 304.1 8 310 -999
2008-09-24 10:00:40 51°19.912 2°37.226 304.1 8 310 -999
2008-09-24 10:00:50 51°19.923 2°37.205 304.1 8 310 -999
2008-09-24 10:01:00 51°19.933 2°37.184 303.3 5.79 308 -999
2008-09-24 10:01:10 51°19.942 2°37.167 303.3 5.79 308 -999
2008-09-24 10:01:20 51°19.951 2°37.151 303.3 5.79 308 -999
2008-09-24 10:01:30 51°19.96 2°37.139 303.3 5.79 308 -999
2008-09-24 10:01:40 51°19.968 2°37.126 303.3 5.79 308 -999
2008-09-24 10:01:50 51°19.976 2°37.116 303.3 5.79 308 -999
2008-09-24 10:02:00 51°19.984 2°37.106 311.6 3.6 321 -999
2008-09-24 10:02:10 51°19.991 2°37.096 311.6 3.6 321 -999
2008-09-24 10:02:20 51°19.998 2°37.086 311.6 3.6 321 -999
2008-09-24 10:02:30 51°20.004 2°37.079 311.6 3.6 321 -999
2008-09-24 10:02:40 51°20.011 2°37.071 311.6 3.6 321 -999
2008-09-24 10:02:50 51°20.017 2°37.063 311.6 3.6 321 -999
2008-09-24 10:03:00 51°20.023 2°37.056 313.1 2.79 326 -999
2008-09-24 10:03:10 51°20.029 2°37.049 313.1 2.79 326 -999
2008-09-24 10:03:20 51°20.035 2°37.043 313.1 2.79 326 -999
2008-09-24 10:03:30 51°20.041 2°37.037 313.1 2.79 326 -999
2008-09-24 10:03:40 51°20.047 2°37.031 313.1 2.79 326 -999
2008-09-24 10:03:50 51°20.052 2°37.025 313.1 2.79 326 -999
2008-09-24 10:04:00 51°20.057 2°37.02 315.3 2.29 324 -999
2008-09-24 10:04:10 51°20.062 2°37.015 315.3 2.29 324 -999
2008-09-24 10:04:20 51°20.067 2°37.01 315.3 2.29 324 -999
2008-09-24 10:04:30 51°20.071 2°37.005 315.3 2.29 324 -999
2008-09-24 10:04:40 51°20.076 2°37.001 315.3 2.29 324 -999
2008-09-24 10:04:50 51°20.08 2°36.995 315.3 2.29 324 -999
2008-09-24 10:05:00 51°20.085 2°36.988 304.6 2.29 306 -999
2008-09-24 10:05:10 51°20.089 2°36.979 304.6 2.29 306 -999
2008-09-24 10:05:20 51°20.091 2°36.968 304.6 2.29 306 -999
2008-09-24 10:05:30 51°20.093 2°36.956 304.6 2.29 306 -999
2008-09-24 10:05:40 51°20.094 2°36.945 304.6 2.29 306 -999
2008-09-24 10:05:50 51°20.093 2°36.935 304.6 2.29 306 -999
2008-09-24 10:06:00 51°20.092 2°36.925 249.5 2.2 261 -999
2008-09-24 10:06:10 51°20.092 2°36.915 249.5 2.2 261 -999
2008-09-24 10:06:20 51°20.093 2°36.904 249.5 2.2 261 -999
2008-09-24 10:06:30 51°20.093 2°36.895 249.5 2.2 261 -999
2008-09-24 10:06:40 51°20.094 2°36.886 249.5 2.2 261 -999
2008-09-24 10:06:50 51°20.096 2°36.88 249.5 2.2 261 -999
2008-09-24 10:07:00 51°20.098 2°36.874 268.3 1.3 293 -999
2008-09-24 10:07:10 51°20.099 2°36.869 268.3 1.3 293 -999
2008-09-24 10:07:20 51°20.1 2°36.864 268.3 1.3 293 -999
2008-09-24 10:07:30 51°20.101 2°36.858 268.3 1.3 293 -999
2008-09-24 10:07:40 51°20.103 2°36.853 268.3 1.3 293 -999
2008-09-24 10:07:50 51°20.104 2°36.848 268.3 1.3 293 -999
2008-09-24 10:08:00 51°20.107 2°36.844 274.1 1.3 309 -999
2008-09-24 10:08:10 51°20.109 2°36.839 274.1 1.3 309 -999
2008-09-24 10:08:20 51°20.111 2°36.835 274.1 1.3 309 -999
2008-09-24 10:08:30 51°20.113 2°36.831 274.1 1.3 309 -999
2008-09-24 10:08:40 51°20.115 2°36.828 274.1 1.3 309 -999
2008-09-24 10:08:50 51°20.117 2°36.825 274.1 1.3 309 -999
2008-09-24 10:09:00 51°20.119 2°36.823 289.3 1 335 -999
2008-09-24 10:09:10 51°20.121 2°36.821 289.3 1 335 -999
2008-09-24 10:09:20 51°20.122 2°36.819 289.3 1 335 -999
2008-09-24 10:09:30 51°20.124 2°36.818 289.3 1 335 -999
2008-09-24 10:09:40 51°20.125 2°36.817 289.3 1 335 -999
2008-09-24 10:09:50 51°20.127 2°36.815 289.3 1 335 -999
2008-09-24 10:10:00 51°20.129 2°36.814 302.6 0.69 345 -999
2008-09-24 10:10:10 51°20.131 2°36.814 302.6 0.69 345 -999
2008-09-24 10:10:20 51°20.133 2°36.813 302.6 0.69 345 -999
2008-09-24 10:10:30 51°20.134 2°36.812 302.6 0.69 345 -999
2008-09-24 10:10:40 51°20.136 2°36.811 302.6 0.69 345 -999
2008-09-24 10:10:50 51°20.138 2°36.81 302.6 0.69 345 -999
2008-09-24 10:11:00 51°20.139 2°36.81 311.8 0.59 352 -999
2008-09-24 10:11:10 51°20.141 2°36.81 311.8 0.59 352 -999
2008-09-24 10:11:20 51°20.142 2°36.809 311.8 0.59 352 -999
2008-09-24 10:11:30 51°20.144 2°36.809 311.8 0.59 352 -999
2008-09-24 10:11:40 51°20.146 2°36.809 311.8 0.59 352 -999
2008-09-24 10:11:50 51°20.147 2°36.809 311.8 0.59 352 -999
2008-09-24 10:12:00 51°20.149 2°36.807 321.6 0.69 335 -999
2008-09-24 10:12:10 51°20.153 2°36.806 321.6 0.69 335 -999
2008-09-24 10:12:20 51°20.158 2°36.803 321.6 0.69 335 -999
2008-09-24 10:12:30 51°20.165 2°36.801 321.6 0.69 335 -999
2008-09-24 10:12:40 51°20.173 2°36.8 321.6 0.69 335 -999
2008-09-24 10:12:50 51°20.182 2°36.802 321.6 0.69 335 -999
2008-09-24 10:13:00 51°20.192 2°36.807 12.8 3.79 19 -999
2008-09-24 10:13:10 51°20.202 2°36.815 12.8 3.79 19 -999
2008-09-24 10:13:20 51°20.209 2°36.826 12.8 3.79 19 -999
2008-09-24 10:13:30 51°20.215 2°36.839 12.8 3.79 19 -999
2008-09-24 10:13:40 51°20.22 2°36.854 12.8 3.79 19 -999
2008-09-24 10:13:50 51°20.221 2°36.87 12.8 3.79 19 -999
2008-09-24 10:14:00 51°20.22 2°36.886 98 3.5 102 -999
2008-09-24 10:14:10 51°20.217 2°36.902 98 3.5 102 -999
2008-09-24 10:14:20 51°20.211 2°36.916 98 3.5 102 -999
2008-09-24 10:14:30 51°20.203 2°36.931 98 3.5 102 -999
2008-09-24 10:14:40 51°20.195 2°36.946 98 3.5 102 -999
2008-09-24 10:14:50 51°20.186 2°36.962 98 3.5 102 -999
2008-09-24 10:15:00 51°20.177 2°36.979 135.5 5.09 136 -999
2008-09-24 10:15:10 51°20.167 2°36.996 135.5 5.09 136 -999
2008-09-24 10:15:20 51°20.157 2°37.014 135.5 5.09 136 -999
2008-09-24 10:15:30 51°20.147 2°37.032 135.5 5.09 136 -999
2008-09-24 10:15:40 51°20.138 2°37.052 135.5 5.09 136 -999
2008-09-24 10:15:50 51°20.128 2°37.07 135.5 5.09 136 -999
2008-09-24 10:16:00 51°20.117 2°37.086 132.4 5.2 145 -999
2008-09-24 10:16:10 51°20.106 2°37.097 132.4 5.2 145 -999
2008-09-24 10:16:20 51°20.094 2°37.101 132.4 5.2 145 -999
2008-09-24 10:16:30 51°20.083 2°37.099 132.4 5.2 145 -999
2008-09-24 10:16:40 51°20.074 2°37.091 132.4 5.2 145 -999
2008-09-24 10:16:50 51°20.066 2°37.079 132.4 5.2 145 -999
2008-09-24 10:17:00 51°20.06 2°37.065 230 4 239 -999
2008-09-24 10:17:10 51°20.055 2°37.048 230 4 239 -999
2008-09-24 10:17:20 51°20.05 2°37.034 230 4 239 -999
2008-09-24 10:17:30 51°20.046 2°37.019 230 4 239 -999
2008-09-24 10:17:40 51°20.043 2°37.007 230 4 239 -999
2008-09-24 10:17:50 51°20.04 2°36.996 230 4 239 -999
2008-09-24 10:18:00 51°20.037 2°36.988 238.5 2.1 241 -999
2008-09-24 10:18:10 51°20.036 2°36.981 238.5 2.1 241 -999
2008-09-24 10:18:20 51°20.037 2°36.977 238.5 2.1 241 -999
2008-09-24 10:18:30 51°20.038 2°36.974 238.5 2.1 241 -999
2008-09-24 10:18:40 51°20.04 2°36.972 238.5 2.1 241 -999
2008-09-24 10:18:50 51°20.04 2°36.969 238.5 2.1 241 -999
2008-09-24 10:19:00 51°20.042 2°36.967 279 0.69 311 -999
2008-09-24 10:19:10 51°20.044 2°36.964 279 0.69 311 -999
2008-09-24 10:19:20 51°20.045 2°36.962 279 0.69 311 -999
2008-09-24 10:19:30 51°20.047 2°36.959 279 0.69 311 -999
2008-09-24 10:19:40 51°20.049 2°36.957 279 0.69 311 -999
2008-09-24 10:19:50 51°20.051 2°36.955 279 0.69 311 -999
2008-09-24 10:20:00 51°20.052 2°36.953 296 0.59 312 -999
2008-09-24 10:20:10 51°20.054 2°36.951 296 0.59 312 -999
2008-09-24 10:20:20 51°20.056 2°36.95 296 0.59 312 -999
2008-09-24 10:20:30 51°20.058 2°36.948 296 0.59 312 -999
2008-09-24 10:20:40 51°20.06 2°36.946 296 0.59 312 -999
2008-09-24 10:20:50 51°20.062 2°36.946 296 0.59 312 -999
2008-09-24 10:21:00 51°20.063 2°36.944 311.8 0.59 319 -999
2008-09-24 10:21:10 51°20.065 2°36.942 311.8 0.59 319 -999
2008-09-24 10:21:20 51°20.067 2°36.94 311.8 0.59 319 -999
2008-09-24 10:21:30 51°20.069 2°36.937 311.8 0.59 319 -999
2008-09-24 10:21:40 51°20.073 2°36.932 311.8 0.59 319 -999
2008-09-24 10:21:50 51°20.076 2°36.926 311.8 0.59 319 -999
2008-09-24 10:22:00 51°20.08 2°36.921 299.3 1.69 316 -999
2008-09-24 10:22:10 51°20.082 2°36.915 299.3 1.69 316 -999
2008-09-24 10:22:20 51°20.086 2°36.911 299.3 1.69 316 -999
2008-09-24 10:22:30 51°20.089 2°36.907 299.3 1.69 316 -999
2008-09-24 10:22:40 51°20.091 2°36.902 299.3 1.69 316 -999
2008-09-24 10:22:50 51°20.094 2°36.898 299.3 1.69 316 -999
2008-09-24 10:23:00 51°20.096 2°36.894 301.6 1.1 314 -999
2008-09-24 10:23:10 51°20.099 2°36.892 301.6 1.1 314 -999
2008-09-24 10:23:20 51°20.102 2°36.888 301.6 1.1 314 -999
2008-09-24 10:23:30 51°20.105 2°36.883 301.6 1.1 314 -999
2008-09-24 10:23:40 51°20.109 2°36.879 301.6 1.1 314 -999
2008-09-24 10:23:50 51°20.112 2°36.876 301.6 1.1 314 -999
2008-09-24 10:24:00 51°20.116 2°36.874 322.3 1.19 334 -999
2008-09-24 10:24:10 51°20.119 2°36.872 322.3 1.19 334 -999
2008-09-24 10:24:20 51°20.122 2°36.87 322.3 1.19 334 -999
2008-09-24 10:24:30 51°20.125 2°36.868 322.3 1.19 334 -999
2008-09-24 10:24:40 51°20.127 2°36.867 322.3 1.19 334 -999
2008-09-24 10:24:50 51°20.13 2°36.865 322.3 1.19 334 -999
2008-09-24 10:25:00 51°20.132 2°36.864 331.1 0.9 340 -999
2008-09-24 10:25:10 51°20.133 2°36.862 331.1 0.9 340 -999
2008-09-24 10:25:20 51°20.135 2°36.861 331.1 0.9 340 -999
2008-09-24 10:25:30 51°20.137 2°36.86 331.1 0.9 340 -999
2008-09-24 10:25:40 51°20.138 2°36.859 331.1 0.9 340 -999
2008-09-24 10:25:50 51°20.14 2°36.858 331.1 0.9 340 -999
2008-09-24 10:26:00 51°20.142 2°36.857 334.6 0.59 340 -999
2008-09-24 10:26:10 51°20.143 2°36.856 334.6 0.59 340 -999
2008-09-24 10:26:20 51°20.144 2°36.855 334.6 0.59 340 -999
2008-09-24 10:26:30 51°20.145 2°36.854 334.6 0.59 340 -999
2008-09-24 10:26:40 51°20.146 2°36.853 334.6 0.59 340 -999
2008-09-24 10:26:50 51°20.147 2°36.853 334.6 0.59 340 -999
2008-09-24 10:27:00 51°20.147 2°36.851 336.6 0.4 294 -999
2008-09-24 10:27:10 51°20.148 2°36.851 336.6 0.4 294 -999
2008-09-24 10:27:20 51°20.148 2°36.849 336.6 0.4 294 -999
2008-09-24 10:27:30 51°20.149 2°36.85 336.6 0.4 294 -999
2008-09-24 10:27:40 51°20.149 2°36.849 336.6 0.4 294 -999
2008-09-24 10:27:50 51°20.15 2°36.848 336.6 0.4 294 -999
2008-09-24 10:28:00 51°20.15 2°36.847 328 0.2 10 -999
2008-09-24 10:28:10 51°20.151 2°36.846 328 0.2 10 -999
2008-09-24 10:28:20 51°20.151 2°36.846 328 0.2 10 -999
2008-09-24 10:28:30 51°20.151 2°36.844 328 0.2 10 -999
2008-09-24 10:28:40 51°20.151 2°36.845 328 0.2 10 -999
2008-09-24 10:28:50 51°20.152 2°36.845 328 0.2 10 -999
2008-09-24 10:29:00 51°20.152 2°36.845 323.3 0.29 26 -999
2008-09-24 10:29:10 51°20.152 2°36.843 323.3 0.29 26 -999
2008-09-24 10:29:20 51°20.153 2°36.843 323.3 0.29 26 -999
2008-09-24 10:29:30 51°20.153 2°36.843 323.3 0.29 26 -999
2008-09-24 10:29:40 51°20.153 2°36.842 323.3 0.29 26 -999
2008-09-24 10:29:50 51°20.153 2°36.842 323.3 0.29 26 -999
2008-09-24 10:30:00 51°20.154 2°36.842 317.3 0.2 287 -999
2008-09-24 10:30:10 51°20.154 2°36.842 317.3 0.2 287 -999
2008-09-24 10:30:20 51°20.154 2°36.842 317.3 0.2 287 -999
2008-09-24 10:30:30 51°20.154 2°36.842 317.3 0.2 287 -999
2008-09-24 10:30:40 51°20.154 2°36.841 317.3 0.2 287 -999
2008-09-24 10:30:50 51°20.154 2°36.84 317.3 0.2 287 -999
2008-09-24 10:31:00 51°20.154 2°36.841 312.1 0.1 52 -999
2008-09-24 10:31:10 51°20.154 2°36.841 312.1 0.1 52 -999
2008-09-24 10:31:20 51°20.154 2°36.84 312.1 0.1 52 -999
2008-09-24 10:31:30 51°20.154 2°36.841 312.1 0.1 52 -999
2008-09-24 10:31:40 51°20.154 2°36.841 312.1 0.1 52 -999
2008-09-24 10:31:50 51°20.154 2°36.84 312.1 0.1 52 -999
2008-09-24 10:32:00 51°20.155 2°36.84 310.3 0.2 20 -999
2008-09-24 10:32:10 51°20.155 2°36.84 310.3 0.2 20 -999
2008-09-24 10:32:20 51°20.155 2°36.84 310.3 0.2 20 -999
2008-09-24 10:32:30 51°20.155 2°36.84 310.3 0.2 20 -999
2008-09-24 10:32:40 51°20.155 2°36.84 310.3 0.2 20 -999
2008-09-24 10:32:50 51°20.155 2°36.84 310.3 0.2 20 -999
2008-09-24 10:33:00 51°20.155 2°36.84 306.8 0.29 237 -999
2008-09-24 10:33:10 51°20.155 2°36.84 306.8 0.29 237 -999
2008-09-24 10:33:20 51°20.156 2°36.84 306.8 0.29 237 -999
2008-09-24 10:33:30 51°20.156 2°36.84 306.8 0.29 237 -999
2008-09-24 10:33:40 51°20.157 2°36.841 306.8 0.29 237 -999
2008-09-24 10:33:50 51°20.158 2°36.841 306.8 0.29 237 -999
2008-09-24 10:34:00 51°20.158 2°36.84 309.8 0.29 355 -999
2008-09-24 10:34:10 51°20.158 2°36.84 309.8 0.29 355 -999
2008-09-24 10:34:20 51°20.159 2°36.84 309.8 0.29 355 -999
2008-09-24 10:34:30 51°20.159 2°36.84 309.8 0.29 355 -999
2008-09-24 10:34:40 51°20.159 2°36.839 309.8 0.29 355 -999
2008-09-24 10:34:50 51°20.159 2°36.837 309.8 0.29 355 -999
2008-09-24 10:35:00 51°20.16 2°36.837 311.1 0.2 305 -999
2008-09-24 10:35:10 51°20.161 2°36.837 311.1 0.2 305 -999
2008-09-24 10:35:20 51°20.162 2°36.837 311.1 0.2 305 -999
2008-09-24 10:35:30 51°20.162 2°36.835 311.1 0.2 305 -999
2008-09-24 10:35:40 51°20.162 2°36.834 311.1 0.2 305 -999
2008-09-24 10:35:50 51°20.162 2°36.833 311.1 0.2 305 -999
2008-09-24 10:36:00 51°20.163 2°36.833 319.8 0.2 12 -999
2008-09-24 10:36:10 51°20.163 2°36.832 319.8 0.2 12 -999
2008-09-24 10:36:20 51°20.163 2°36.831 319.8 0.2 12 -999
2008-09-24 10:36:30 51°20.164 2°36.831 319.8 0.2 12 -999
2008-09-24 10:36:40 51°20.165 2°36.83 319.8 0.2 12 -999
2008-09-24 10:36:50 51°20.165 2°36.828 319.8 0.2 12 -999
2008-09-24 10:37:00 51°20.166 2°36.828 324.5 0.2 337 -999
2008-09-24 10:37:10 51°20.166 2°36.827 324.5 0.2 337 -999
2008-09-24 10:37:20 51°20.166 2°36.826 324.5 0.2 337 -999
2008-09-24 10:37:30 51°20.167 2°36.825 324.5 0.2 337 -999
2008-09-24 10:37:40 51°20.167 2°36.824 324.5 0.2 337 -999
2008-09-24 10:37:50 51°20.168 2°36.823 324.5 0.2 337 -999
2008-09-24 10:38:00 51°20.168 2°36.822 328 0.29 8 -999
2008-09-24 10:38:10 51°20.168 2°36.821 328 0.29 8 -999
2008-09-24 10:38:20 51°20.168 2°36.82 328 0.29 8 -999
2008-09-24 10:38:30 51°20.168 2°36.819 328 0.29 8 -999
2008-09-24 10:38:40 51°20.169 2°36.818 328 0.29 8 -999
2008-09-24 10:38:50 51°20.169 2°36.817 328 0.29 8 -999
2008-09-24 10:39:00 51°20.169 2°36.817 326.6 0.2 310 -999
2008-09-24 10:39:10 51°20.169 2°36.816 326.6 0.2 310 -999
2008-09-24 10:39:20 51°20.17 2°36.815 326.6 0.2 310 -999
2008-09-24 10:39:30 51°20.17 2°36.814 326.6 0.2 310 -999
2008-09-24 10:39:40 51°20.17 2°36.813 326.6 0.2 310 -999
2008-09-24 10:39:50 51°20.17 2°36.812 326.6 0.2 310 -999
2008-09-24 10:40:00 51°20.171 2°36.811 327.1 0.29 313 -999
2008-09-24 10:40:10 51°20.171 2°36.81 327.1 0.29 313 -999
2008-09-24 10:40:20 51°20.172 2°36.81 327.1 0.29 313 -999
2008-09-24 10:40:30 51°20.172 2°36.808 327.1 0.29 313 -999
2008-09-24 10:40:40 51°20.173 2°36.806 327.1 0.29 313 -999
2008-09-24 10:40:50 51°20.176 2°36.804 327.1 0.29 313 -999
2008-09-24 10:41:00 51°20.181 2°36.801 336.6 1.8 338 -999
2008-09-24 10:41:10 51°20.186 2°36.798 336.6 1.8 338 -999
2008-09-24 10:41:20 51°20.193 2°36.796 336.6 1.8 338 -999
2008-09-24 10:41:30 51°20.199 2°36.796 336.6 1.8 338 -999
2008-09-24 10:41:40 51°20.207 2°36.797 336.6 1.8 338 -999
2008-09-24 10:41:50 51°20.215 2°36.799 336.6 1.8 338 -999
2008-09-24 10:42:00 51°20.223 2°36.804 23.1 3 20 -999
2008-09-24 10:42:10 51°20.229 2°36.81 23.1 3 20 -999
2008-09-24 10:42:20 51°20.236 2°36.818 23.1 3 20 -999
2008-09-24 10:42:30 51°20.242 2°36.828 23.1 3 20 -999
2008-09-24 10:42:40 51°20.246 2°36.838 23.1 3 20 -999
2008-09-24 10:42:50 51°20.25 2°36.849 23.1 3 20 -999
2008-09-24 10:43:00 51°20.251 2°36.861 85 2.7 85 -999
2008-09-24 10:43:10 51°20.25 2°36.873 85 2.7 85 -999
2008-09-24 10:43:20 51°20.248 2°36.884 85 2.7 85 -999
2008-09-24 10:43:30 51°20.244 2°36.893 85 2.7 85 -999
2008-09-24 10:43:40 51°20.238 2°36.9 85 2.7 85 -999
2008-09-24 10:43:50 51°20.233 2°36.904 85 2.7 85 -999
2008-09-24 10:44:00 51°20.226 2°36.906 166.8 2.6 181 -999
2008-09-24 10:44:10 51°20.219 2°36.905 166.8 2.6 181 -999
2008-09-24 10:44:20 51°20.214 2°36.903 166.8 2.6 181 -999
2008-09-24 10:44:30 51°20.209 2°36.901 166.8 2.6 181 -999
2008-09-24 10:44:40 51°20.205 2°36.898 166.8 2.6 181 -999
2008-09-24 10:44:50 51°20.201 2°36.896 166.8 2.6 181 -999
2008-09-24 10:45:00 51°20.197 2°36.895 190.9 1.3 194 -999
2008-09-24 10:45:10 51°20.193 2°36.894 190.9 1.3 194 -999
2008-09-24 10:45:20 51°20.19 2°36.893 190.9 1.3 194 -999
2008-09-24 10:45:30 51°20.187 2°36.893 190.9 1.3 194 -999
2008-09-24 10:45:40 51°20.185 2°36.893 190.9 1.3 194 -999
2008-09-24 10:45:50 51°20.183 2°36.893 190.9 1.3 194 -999
2008-09-24 10:46:00 51°20.181 2°36.893 172.5 0.69 173 -999
2008-09-24 10:46:10 51°20.179 2°36.893 172.5 0.69 173 -999
2008-09-24 10:46:20 51°20.178 2°36.892 172.5 0.69 173 -999
2008-09-24 10:46:30 51°20.177 2°36.892 172.5 0.69 173 -999
2008-09-24 10:46:40 51°20.175 2°36.892 172.5 0.69 173 -999
2008-09-24 10:46:50 51°20.174 2°36.892 172.5 0.69 173 -999
2008-09-24 10:47:00 51°20.173 2°36.892 163 0.29 201 -999
2008-09-24 10:47:10 51°20.173 2°36.892 163 0.29 201 -999
2008-09-24 10:47:20 51°20.172 2°36.892 163 0.29 201 -999
2008-09-24 10:47:30 51°20.172 2°36.892 163 0.29 201 -999
2008-09-24 10:47:40 51°20.171 2°36.891 163 0.29 201 -999
2008-09-24 10:47:50 51°20.17 2°36.891 163 0.29 201 -999
2008-09-24 10:48:00 51°20.17 2°36.891 157.4   57 -999
2008-09-24 10:48:10 51°20.171 2°36.891 157.4   57 -999
2008-09-24 10:48:20 51°20.17 2°36.891 157.4   57 -999
2008-09-24 10:48:30 51°20.169 2°36.89 157.4   57 -999
2008-09-24 10:48:40 51°20.169 2°36.89 157.4   57 -999
2008-09-24 10:48:50 51°20.169 2°36.89 157.4   57 -999
2008-09-24 10:49:00 51°20.169 2°36.89 151.3   309 -999
2008-09-24 10:49:10 51°20.169 2°36.889 151.3   309 -999
2008-09-24 10:49:20 51°20.169 2°36.888 151.3   309 -999
2008-09-24 10:49:30 51°20.168 2°36.887 151.3   309 -999
2008-09-24 10:49:40 51°20.168 2°36.887 151.3   309 -999
2008-09-24 10:49:50 51°20.168 2°36.886 151.3   309 -999
2008-09-24 10:50:00 51°20.168 2°36.886 145.1 0.29 264 -999
2008-09-24 10:50:10 51°20.168 2°36.884 145.1 0.29 264 -999
2008-09-24 10:50:20 51°20.168 2°36.883 145.1 0.29 264 -999
2008-09-24 10:50:30 51°20.168 2°36.883 145.1 0.29 264 -999
2008-09-24 10:50:40 51°20.168 2°36.882 145.1 0.29 264 -999
2008-09-24 10:50:50 51°20.168 2°36.88 145.1 0.29 264 -999
2008-09-24 10:51:00 51°20.168 2°36.88 148.1 0.1 341 -999
2008-09-24 10:51:10 51°20.168 2°36.878 148.1 0.1 341 -999
2008-09-24 10:51:20 51°20.168 2°36.877 148.1 0.1 341 -999
2008-09-24 10:51:30 51°20.168 2°36.876 148.1 0.1 341 -999
2008-09-24 10:51:40 51°20.168 2°36.875 148.1 0.1 341 -999
2008-09-24 10:51:50 51°20.168 2°36.873 148.1 0.1 341 -999
2008-09-24 10:52:00 51°20.168 2°36.873 149.5 0.2 233 -999
2008-09-24 10:52:10 51°20.168 2°36.872 149.5 0.2 233 -999
2008-09-24 10:52:20 51°20.167 2°36.87 149.5 0.2 233 -999
2008-09-24 10:52:30 51°20.167 2°36.869 149.5 0.2 233 -999
2008-09-24 10:52:40 51°20.167 2°36.868 149.5 0.2 233 -999
2008-09-24 10:52:50 51°20.167 2°36.866 149.5 0.2 233 -999
2008-09-24 10:53:00 51°20.166 2°36.865 152.6 0.29 250 -999
2008-09-24 10:53:10 51°20.166 2°36.863 152.6 0.29 250 -999
2008-09-24 10:53:20 51°20.166 2°36.861 152.6 0.29 250 -999
2008-09-24 10:53:30 51°20.166 2°36.86 152.6 0.29 250 -999
2008-09-24 10:53:40 51°20.166 2°36.859 152.6 0.29 250 -999
2008-09-24 10:53:50 51°20.165 2°36.858 152.6 0.29 250 -999
2008-09-24 10:54:00 51°20.165 2°36.856 156.6 0.5 264 -999
2008-09-24 10:54:10 51°20.165 2°36.855 156.6 0.5 264 -999
2008-09-24 10:54:20 51°20.165 2°36.854 156.6 0.5 264 -999
2008-09-24 10:54:30 51°20.165 2°36.853 156.6 0.5 264 -999
2008-09-24 10:54:40 51°20.165 2°36.851 156.6 0.5 264 -999
2008-09-24 10:54:50 51°20.165 2°36.85 156.6 0.5 264 -999
2008-09-24 10:55:00 51°20.166 2°36.849 154.8 0.2 265 -999
2008-09-24 10:55:10 51°20.166 2°36.848 154.8 0.2 265 -999
2008-09-24 10:55:20 51°20.166 2°36.846 154.8 0.2 265 -999
2008-09-24 10:55:30 51°20.166 2°36.844 154.8 0.2 265 -999
2008-09-24 10:55:40 51°20.166 2°36.843 154.8 0.2 265 -999
2008-09-24 10:55:50 51°20.166 2°36.841 154.8 0.2 265 -999
2008-09-24 10:56:00 51°20.166 2°36.839 154.5 0.59 255 -999
2008-09-24 10:56:10 51°20.166 2°36.838 154.5 0.59 255 -999
2008-09-24 10:56:20 51°20.167 2°36.837 154.5 0.59 255 -999
2008-09-24 10:56:30 51°20.166 2°36.835 154.5 0.59 255 -999
2008-09-24 10:56:40 51°20.167 2°36.833 154.5 0.59 255 -999
2008-09-24 10:56:50 51°20.167 2°36.832 154.5 0.59 255 -999
2008-09-24 10:57:00 51°20.167 2°36.83 155.1 0.29 284 -999
2008-09-24 10:57:10 51°20.167 2°36.828 155.1 0.29 284 -999
2008-09-24 10:57:20 51°20.167 2°36.826 155.1 0.29 284 -999
2008-09-24 10:57:30 51°20.168 2°36.825 155.1 0.29 284 -999
2008-09-24 10:57:40 51°20.168 2°36.822 155.1 0.29 284 -999
2008-09-24 10:57:50 51°20.168 2°36.822 155.1 0.29 284 -999
2008-09-24 10:58:00 51°20.168 2°36.82 158 0.2 323 -999
2008-09-24 10:58:10 51°20.169 2°36.818 158 0.2 323 -999
2008-09-24 10:58:20 51°20.169 2°36.816 158 0.2 323 -999
2008-09-24 10:58:30 51°20.169 2°36.814 158 0.2 323 -999
2008-09-24 10:58:40 51°20.168 2°36.812 158 0.2 323 -999
2008-09-24 10:58:50 51°20.168 2°36.811 158 0.2 323 -999
2008-09-24 10:59:00 51°20.168 2°36.809 156 0.4 239 -999
2008-09-24 10:59:10 51°20.168 2°36.808 156 0.4 239 -999
2008-09-24 10:59:20 51°20.168 2°36.807 156 0.4 239 -999
2008-09-24 10:59:30 51°20.168 2°36.806 156 0.4 239 -999
2008-09-24 10:59:40 51°20.168 2°36.805 156 0.4 239 -999
2008-09-24 10:59:50 51°20.168 2°36.804 156 0.4 239 -999
2008-09-24 11:00:00 51°20.168 2°36.803 151.8 0.29 263 -999
2008-09-24 11:00:10 51°20.168 2°36.802 151.8 0.29 263 -999
2008-09-24 11:00:20 51°20.168 2°36.8 151.8 0.29 263 -999
2008-09-24 11:00:30 51°20.168 2°36.799 151.8 0.29 263 -999
2008-09-24 11:00:40 51°20.168 2°36.797 151.8 0.29 263 -999
2008-09-24 11:00:50 51°20.167 2°36.796 151.8 0.29 263 -999
2008-09-24 11:01:00 51°20.167 2°36.795 152.3 0.2 231 -999
2008-09-24 11:01:10 51°20.167 2°36.793 152.3 0.2 231 -999
2008-09-24 11:01:20 51°20.167 2°36.791 152.3 0.2 231 -999
2008-09-24 11:01:30 51°20.167 2°36.79 152.3 0.2 231 -999
2008-09-24 11:01:40 51°20.167 2°36.788 152.3 0.2 231 -999
2008-09-24 11:01:50 51°20.167 2°36.786 152.3 0.2 231 -999
2008-09-24 11:02:00 51°20.167 2°36.784 154.5 0.59 265 -999
2008-09-24 11:02:10 51°20.167 2°36.783 154.5 0.59 265 -999
2008-09-24 11:02:20 51°20.167 2°36.781 154.5 0.59 265 -999
2008-09-24 11:02:30 51°20.167 2°36.779 154.5 0.59 265 -999
2008-09-24 11:02:40 51°20.167 2°36.777 154.5 0.59 265 -999
2008-09-24 11:02:50 51°20.168 2°36.775 154.5 0.59 265 -999
2008-09-24 11:03:00 51°20.167 2°36.773 157.3 0.29 266 -999
2008-09-24 11:03:10 51°20.168 2°36.772 157.3 0.29 266 -999
2008-09-24 11:03:20 51°20.168 2°36.77 157.3 0.29 266 -999
2008-09-24 11:03:30 51°20.168 2°36.768 157.3 0.29 266 -999
2008-09-24 11:03:40 51°20.168 2°36.767 157.3 0.29 266 -999
2008-09-24 11:03:50 51°20.168 2°36.765 157.3 0.29 266 -999
2008-09-24 11:04:00 51°20.168 2°36.763 156 0.4 270 -999
2008-09-24 11:04:10 51°20.168 2°36.762 156 0.4 270 -999
2008-09-24 11:04:20 51°20.168 2°36.761 156 0.4 270 -999
2008-09-24 11:04:30 51°20.168 2°36.758 156 0.4 270 -999
2008-09-24 11:04:40 51°20.168 2°36.757 156 0.4 270 -999
2008-09-24 11:04:50 51°20.167 2°36.756 156 0.4 270 -999
2008-09-24 11:05:00 51°20.167 2°36.754 154.5 0.59 244 -999
2008-09-24 11:05:10 51°20.167 2°36.753 154.5 0.59 244 -999
2008-09-24 11:05:20 51°20.167 2°36.752 154.5 0.59 244 -999
2008-09-24 11:05:30 51°20.167 2°36.75 154.5 0.59 244 -999
2008-09-24 11:05:40 51°20.167 2°36.749 154.5 0.59 244 -999
2008-09-24 11:05:50 51°20.167 2°36.747 154.5 0.59 244 -999
2008-09-24 11:06:00 51°20.167 2°36.745 153 0.29 283 -999
2008-09-24 11:06:10 51°20.167 2°36.744 153 0.29 283 -999
2008-09-24 11:06:20 51°20.167 2°36.742 153 0.29 283 -999
2008-09-24 11:06:30 51°20.167 2°36.741 153 0.29 283 -999
2008-09-24 11:06:40 51°20.168 2°36.739 153 0.29 283 -999
2008-09-24 11:06:50 51°20.168 2°36.737 153 0.29 283 -999
2008-09-24 11:07:00 51°20.167 2°36.735 156.3 0.29 246 -999
2008-09-24 11:07:10 51°20.167 2°36.733 156.3 0.29 246 -999
2008-09-24 11:07:20 51°20.167 2°36.732 156.3 0.29 246 -999
2008-09-24 11:07:30 51°20.167 2°36.731 156.3 0.29 246 -999
2008-09-24 11:07:40 51°20.168 2°36.729 156.3 0.29 246 -999
2008-09-24 11:07:50 51°20.168 2°36.728 156.3 0.29 246 -999
2008-09-24 11:08:00 51°20.168 2°36.727 153.8 0.1 156 -999
2008-09-24 11:08:10 51°20.168 2°36.726 153.8 0.1 156 -999
2008-09-24 11:08:20 51°20.167 2°36.725 153.8 0.1 156 -999
2008-09-24 11:08:30 51°20.167 2°36.723 153.8 0.1 156 -999
2008-09-24 11:08:40 51°20.167 2°36.722 153.8 0.1 156 -999
2008-09-24 11:08:50 51°20.168 2°36.721 153.8 0.1 156 -999
2008-09-24 11:09:00 51°20.167 2°36.718 155.1 0.59 264 -999
2008-09-24 11:09:10 51°20.168 2°36.717 155.1 0.59 264 -999
2008-09-24 11:09:20 51°20.167 2°36.716 155.1 0.59 264 -999
2008-09-24 11:09:30 51°20.167 2°36.714 155.1 0.59 264 -999
2008-09-24 11:09:40 51°20.167 2°36.712 155.1 0.59 264 -999
2008-09-24 11:09:50 51°20.167 2°36.711 155.1 0.59 264 -999
2008-09-24 11:10:00 51°20.166 2°36.708 155.5 0.4 273 -999
2008-09-24 11:10:10 51°20.166 2°36.707 155.5 0.4 273 -999
2008-09-24 11:10:20 51°20.166 2°36.704 155.5 0.4 273 -999
2008-09-24 11:10:30 51°20.166 2°36.702 155.5 0.4 273 -999
2008-09-24 11:10:40 51°20.166 2°36.7 155.5 0.4 273 -999
2008-09-24 11:10:50 51°20.167 2°36.699 155.5 0.4 273 -999
2008-09-24 11:11:00 51°20.167 2°36.697 157.5 0.5 287 -999
2008-09-24 11:11:10 51°20.167 2°36.695 157.5 0.5 287 -999
2008-09-24 11:11:20 51°20.167 2°36.693 157.5 0.5 287 -999
2008-09-24 11:11:30 51°20.167 2°36.691 157.5 0.5 287 -999
2008-09-24 11:11:40 51°20.168 2°36.689 157.5 0.5 287 -999
2008-09-24 11:11:50 51°20.168 2°36.687 157.5 0.5 287 -999
2008-09-24 11:12:00 51°20.168 2°36.684 161.8 0.69 270 -999
2008-09-24 11:12:10 51°20.168 2°36.683 161.8 0.69 270 -999
2008-09-24 11:12:20 51°20.169 2°36.68 161.8 0.69 270 -999
2008-09-24 11:12:30 51°20.169 2°36.678 161.8 0.69 270 -999
2008-09-24 11:12:40 51°20.169 2°36.676 161.8 0.69 270 -999
2008-09-24 11:12:50 51°20.169 2°36.674 161.8 0.69 270 -999
2008-09-24 11:13:00 51°20.17 2°36.671 166.5 0.4 282 -999
2008-09-24 11:13:10 51°20.17 2°36.669 166.5 0.4 282 -999
2008-09-24 11:13:20 51°20.17 2°36.667 166.5 0.4 282 -999
2008-09-24 11:13:30 51°20.171 2°36.665 166.5 0.4 282 -999
2008-09-24 11:13:40 51°20.171 2°36.662 166.5 0.4 282 -999
2008-09-24 11:13:50 51°20.171 2°36.66 166.5 0.4 282 -999
2008-09-24 11:14:00 51°20.171 2°36.658 163.9 0.69 270 -999
2008-09-24 11:14:10 51°20.172 2°36.656 163.9 0.69 270 -999
2008-09-24 11:14:20 51°20.172 2°36.655 163.9 0.69 270 -999
2008-09-24 11:14:30 51°20.172 2°36.652 163.9 0.69 270 -999
2008-09-24 11:14:40 51°20.172 2°36.65 163.9 0.69 270 -999
2008-09-24 11:14:50 51°20.172 2°36.648 163.9 0.69 270 -999
2008-09-24 11:15:00 51°20.172 2°36.646 161.6 0.5 279 -999
2008-09-24 11:15:10 51°20.173 2°36.645 161.6 0.5 279 -999
2008-09-24 11:15:20 51°20.173 2°36.642 161.6 0.5 279 -999
2008-09-24 11:15:30 51°20.173 2°36.64 161.6 0.5 279 -999
2008-09-24 11:15:40 51°20.173 2°36.638 161.6 0.5 279 -999
2008-09-24 11:15:50 51°20.173 2°36.636 161.6 0.5 279 -999
2008-09-24 11:16:00 51°20.173 2°36.634 164.6 0.59 274 -999
2008-09-24 11:16:10 51°20.173 2°36.632 164.6 0.59 274 -999
2008-09-24 11:16:20 51°20.172 2°36.629 164.6 0.59 274 -999
2008-09-24 11:16:30 51°20.172 2°36.628 164.6 0.59 274 -999
2008-09-24 11:16:40 51°20.172 2°36.625 164.6 0.59 274 -999
2008-09-24 11:16:50 51°20.172 2°36.624 164.6 0.59 274 -999
2008-09-24 11:17:00 51°20.172 2°36.623 161.9 0.29 252 -999
2008-09-24 11:17:10 51°20.172 2°36.621 161.9 0.29 252 -999
2008-09-24 11:17:20 51°20.172 2°36.619 161.9 0.29 252 -999
2008-09-24 11:17:30 51°20.172 2°36.618 161.9 0.29 252 -999
2008-09-24 11:17:40 51°20.171 2°36.615 161.9 0.29 252 -999
2008-09-24 11:17:50 51°20.171 2°36.613 161.9 0.29 252 -999